createdAt,value
2022-08-21T00:00:25.944Z,101767.81
2022-08-21T00:02:55.808Z,101767.81
2022-08-21T00:05:26.767Z,101763.16
2022-08-21T00:07:53.356Z,101764.00
2022-08-21T00:10:20.151Z,101770.56
2022-08-21T00:13:02.726Z,101777.13
2022-08-21T00:15:31.492Z,101771.13
2022-08-21T00:18:29.866Z,101764.84
2022-08-21T00:20:59.944Z,101768.66
2022-08-21T00:23:26.536Z,101765.38
2022-08-21T00:25:53.043Z,101769.50
2022-08-21T00:28:27.588Z,101774.41
2022-08-21T00:30:53.987Z,101771.69
2022-08-21T00:33:26.645Z,101770.91
2022-08-21T00:36:19.428Z,101764.59
2022-08-21T00:38:47.867Z,101760.53
2022-08-21T00:41:38.061Z,101758.59
2022-08-21T00:44:19.344Z,101756.13
2022-08-21T00:46:47.992Z,101755.59
2022-08-21T00:49:14.631Z,101754.75
2022-08-21T00:52:17.633Z,101762.69
2022-08-21T00:54:46.563Z,101761.31
2022-08-21T00:57:24.886Z,101764.31
2022-08-21T00:59:56.235Z,101762.41
2022-08-21T01:02:25.669Z,101764.31
2022-08-21T01:04:52.731Z,101757.22
2022-08-21T01:07:23.296Z,101754.75
2022-08-21T01:10:05.407Z,101758.88
2022-08-21T01:12:43.049Z,101755.31
2022-08-21T01:15:20.183Z,101749.84
2022-08-21T01:18:04.672Z,101752.03
2022-08-21T01:20:32.902Z,101748.22
2022-08-21T01:23:00.298Z,101750.94
2022-08-21T01:25:26.863Z,101754.75
2022-08-21T01:27:54.351Z,101756.41
2022-08-21T01:30:26.131Z,101757.50
2022-08-21T01:32:55.205Z,101759.41
2022-08-21T01:35:22.100Z,101758.31
2022-08-21T01:37:52.653Z,101754.75
2022-08-21T01:40:22.682Z,101752.56
2022-08-21T01:42:49.557Z,101756.69
2022-08-21T01:45:16.923Z,101747.13
2022-08-21T01:47:45.105Z,101748.75
2022-08-21T01:50:21.366Z,101743.28
2022-08-21T01:52:48.355Z,101746.03
2022-08-21T01:55:16.912Z,101743.28
2022-08-21T01:57:44.012Z,101747.41
2022-08-21T02:00:13.401Z,101748.75
2022-08-21T02:03:12.880Z,101749.31
2022-08-21T02:05:39.271Z,101748.78
2022-08-21T02:08:10.826Z,101747.94
2022-08-21T02:10:37.263Z,101736.47
2022-08-21T02:13:04.119Z,101734.31
2022-08-21T02:15:32.577Z,101736.22
2022-08-21T02:18:01.084Z,101731.31
2022-08-21T02:20:33.563Z,101731.31
2022-08-21T02:23:00.136Z,101733.50
2022-08-21T02:25:28.111Z,101730.75
2022-08-21T02:27:58.763Z,101725.56
2022-08-21T02:30:29.683Z,101725.31
2022-08-21T02:33:15.736Z,101726.94
2022-08-21T02:35:43.491Z,101717.66
2022-08-21T02:38:26.149Z,101715.47
2022-08-21T02:40:53.502Z,101716.56
2022-08-21T02:43:28.649Z,101716.56
2022-08-21T02:46:15.744Z,101708.94
2022-08-21T02:48:43.026Z,101708.94
2022-08-21T02:51:38.391Z,101708.94
2022-08-21T02:54:06.881Z,101705.66
2022-08-21T02:56:38.543Z,101704.03
2022-08-21T02:59:05.085Z,101702.38
2022-08-21T03:01:31.557Z,101708.38
2022-08-21T03:04:04.144Z,101704.56
2022-08-21T03:06:37.509Z,101696.38
2022-08-21T03:09:11.086Z,101700.75
2022-08-21T03:11:48.888Z,101701.31
2022-08-21T03:14:17.366Z,101701.84
2022-08-21T03:16:45.893Z,101693.13
2022-08-21T03:19:18.599Z,101701.84
2022-08-21T03:21:45.001Z,101702.09
2022-08-21T03:24:11.476Z,101696.94
2022-08-21T03:26:38.996Z,101693.13
2022-08-21T03:29:08.464Z,101698.03
2022-08-21T03:31:35.973Z,101688.75
2022-08-21T03:34:04.421Z,101695.84
2022-08-21T03:36:30.835Z,101690.94
2022-08-21T03:38:57.275Z,101693.91
2022-08-21T03:41:25.765Z,101690.66
2022-08-21T03:43:57.245Z,101690.66
2022-08-21T03:46:23.688Z,101687.66
2022-08-21T03:48:50.671Z,101681.38
2022-08-21T03:51:24.409Z,101689.00
2022-08-21T03:54:04.152Z,101689.28
2022-08-21T03:56:31.704Z,101688.75
2022-08-21T03:58:58.445Z,101688.19
2022-08-21T04:01:25.402Z,101689.28
2022-08-21T04:03:59.891Z,101696.94
2022-08-21T04:06:27.547Z,101693.66
2022-08-21T04:08:54.620Z,101698.56
2022-08-21T04:11:35.193Z,101696.63
2022-08-21T04:14:03.024Z,101697.47
2022-08-21T04:16:29.512Z,101691.47
2022-08-21T04:19:15.490Z,101697.47
2022-08-21T04:21:50.959Z,101695.81
2022-08-21T04:24:20.264Z,101693.91
2022-08-21T04:26:46.727Z,101692.53
2022-08-21T04:29:13.144Z,101687.34
2022-08-21T04:31:39.569Z,101686.53
2022-08-21T04:34:13.412Z,101695.81
2022-08-21T04:37:08.788Z,101695.81
2022-08-21T04:39:35.359Z,101691.16
2022-08-21T04:42:02.008Z,101691.69
2022-08-21T04:44:29.471Z,101695.53
2022-08-21T04:46:55.883Z,101688.47
2022-08-21T04:50:15.108Z,101683.81
2022-08-21T04:52:42.102Z,101685.19
2022-08-21T04:55:09.337Z,101692.81
2022-08-21T04:57:48.920Z,101695.25
2022-08-21T05:00:19.910Z,101691.72
2022-08-21T05:02:50.999Z,101691.97
2022-08-21T05:05:25.777Z,101703.44
2022-08-21T05:08:00.040Z,101702.34
2022-08-21T05:10:26.684Z,101693.91
2022-08-21T05:12:53.329Z,101706.72
2022-08-21T05:15:19.930Z,101709.16
2022-08-21T05:18:17.539Z,101711.09
2022-08-21T05:20:45.985Z,101709.47
2022-08-21T05:23:15.260Z,101723.63
2022-08-21T05:25:44.812Z,101719.00
2022-08-21T05:28:16.462Z,101720.91
2022-08-21T05:31:01.496Z,101718.75
2022-08-21T05:33:44.078Z,101725.84
2022-08-21T05:36:10.543Z,101724.22
2022-08-21T05:38:47.630Z,101723.13
2022-08-21T05:41:21.272Z,101723.38
2022-08-21T05:43:47.860Z,101715.19
2022-08-21T05:46:28.600Z,101725.31
2022-08-21T05:48:56.084Z,101716.84
2022-08-21T05:51:24.692Z,101716.84
2022-08-21T05:54:44.908Z,101715.75
2022-08-21T05:57:11.308Z,101718.47
2022-08-21T05:59:38.648Z,101716.56
2022-08-21T06:06:11.413Z,101722.28
2022-08-21T06:08:37.997Z,101711.06
2022-08-21T06:11:05.876Z,101710.53
2022-08-21T06:13:37.939Z,101720.38
2022-08-21T06:16:15.704Z,101713.81
2022-08-21T06:19:03.053Z,101706.44
2022-08-21T06:21:29.898Z,101718.16
2022-08-21T06:23:56.652Z,101708.84
2022-08-21T06:26:23.276Z,101715.66
2022-08-21T06:28:55.154Z,101706.63
2022-08-21T06:31:23.978Z,101721.34
2022-08-21T06:34:03.689Z,101710.41
2022-08-21T06:36:31.120Z,101709.81
2022-08-21T06:38:58.044Z,101708.69
2022-08-21T06:41:27.636Z,101711.38
2022-08-21T06:43:57.142Z,101714.09
2022-08-21T06:46:28.481Z,101718.97
2022-08-21T06:48:55.304Z,101709.63
2022-08-21T06:51:23.009Z,101713.19
2022-08-21T06:53:50.450Z,101716.16
2022-08-21T06:56:16.886Z,101714.75
2022-08-21T06:58:43.401Z,101722.63
2022-08-21T07:01:09.831Z,101714.13
2022-08-21T07:03:42.690Z,101712.97
2022-08-21T07:06:12.004Z,101703.09
2022-08-21T07:08:39.361Z,101714.84
2022-08-21T07:11:12.097Z,101709.31
2022-08-21T07:13:38.585Z,101716.09
2022-08-21T07:16:05.232Z,101705.94
2022-08-21T07:18:32.276Z,101698.78
2022-08-21T07:20:58.833Z,101704.22
2022-08-21T07:23:34.369Z,101698.69
2022-08-21T07:26:01.592Z,101702.47
2022-08-21T07:28:31.136Z,101702.41
2022-08-21T07:31:00.985Z,101706.72
2022-08-21T07:33:29.652Z,101704.78
2022-08-21T07:35:56.252Z,101707.47
2022-08-21T07:38:23.989Z,101698.59
2022-08-21T07:40:53.535Z,101703.16
2022-08-21T07:43:19.960Z,101701.97
2022-08-21T07:45:58.565Z,101699.19
2022-08-21T07:48:25.224Z,101706.28
2022-08-21T07:50:52.129Z,101716.34
2022-08-21T07:53:19.623Z,101706.66
2022-08-21T07:55:46.117Z,101704.91
2022-08-21T07:58:12.497Z,101699.88
2022-08-21T08:00:38.948Z,101705.81
2022-08-21T08:03:05.468Z,101708.19
2022-08-21T08:05:38.337Z,101706.19
2022-08-21T08:08:04.780Z,101706.09
2022-08-21T08:10:32.515Z,101702.19
2022-08-21T08:13:02.331Z,101706.22
2022-08-21T08:15:29.149Z,101692.94
2022-08-21T08:17:59.973Z,101698.25
2022-08-21T08:20:42.107Z,101692.31
2022-08-21T08:23:12.177Z,101680.16
2022-08-21T08:25:38.957Z,101685.75
2022-08-21T08:28:16.281Z,101683.66
2022-08-21T08:30:57.251Z,101691.13
2022-08-21T08:33:37.001Z,101693.69
2022-08-21T08:36:07.870Z,101690.84
2022-08-21T08:38:34.797Z,101697.06
2022-08-21T08:41:13.966Z,101692.78
2022-08-21T08:43:52.892Z,101702.25
2022-08-21T08:46:42.216Z,101695.44
2022-08-21T08:49:32.720Z,101698.81
2022-08-21T08:52:14.836Z,101694.75
2022-08-21T08:54:46.411Z,101687.50
2022-08-21T08:57:19.973Z,101689.44
2022-08-21T09:00:00.528Z,101683.28
2022-08-21T09:02:30.096Z,101681.97
2022-08-21T09:05:17.997Z,101685.00
2022-08-21T09:08:23.380Z,101685.34
2022-08-21T09:11:03.832Z,101687.16
2022-08-21T09:13:44.091Z,101673.75
2022-08-21T09:16:15.545Z,101673.63
2022-08-21T09:19:05.204Z,101671.75
2022-08-21T09:21:50.254Z,101671.66
2022-08-21T09:24:34.557Z,101673.81
2022-08-21T09:27:13.381Z,101668.63
2022-08-21T09:29:44.039Z,101670.22
2022-08-21T09:32:37.743Z,101688.13
2022-08-21T09:35:22.115Z,101680.75
2022-08-21T09:37:56.467Z,101689.78
2022-08-21T09:40:47.970Z,101686.41
2022-08-21T09:43:19.821Z,101684.38
2022-08-21T09:45:48.103Z,101681.22
2022-08-21T09:50:48.557Z,101687.00
2022-08-21T09:53:27.598Z,101691.47
2022-08-21T09:56:18.799Z,101687.44
2022-08-21T09:58:49.889Z,101679.19
2022-08-21T10:01:23.716Z,101678.53
2022-08-21T10:04:02.684Z,101672.22
2022-08-21T10:06:29.862Z,101675.97
2022-08-21T10:09:15.126Z,101677.09
2022-08-21T10:11:53.333Z,101672.53
2022-08-21T10:14:49.743Z,101670.34
2022-08-21T10:17:38.231Z,101670.16
2022-08-21T10:20:18.085Z,101667.91
2022-08-21T10:23:06.521Z,101674.59
2022-08-21T10:25:56.300Z,101673.31
2022-08-21T10:29:05.163Z,101674.78
2022-08-21T10:31:56.688Z,101667.66
2022-08-21T10:34:26.033Z,101655.84
2022-08-21T10:37:40.436Z,101653.28
2022-08-21T10:40:20.993Z,101653.28
2022-08-21T10:43:22.733Z,101659.16
2022-08-21T10:46:30.809Z,101658.19
2022-08-21T10:49:21.844Z,101649.09
2022-08-21T10:51:51.132Z,101650.69
2022-08-21T10:54:37.014Z,101647.44
2022-08-21T10:57:13.220Z,101635.88
2022-08-21T10:59:52.846Z,101641.91
2022-08-21T11:02:22.140Z,101634.56
2022-08-21T11:05:19.915Z,101630.00
2022-08-21T11:08:16.133Z,101628.84
2022-08-21T11:10:57.783Z,101635.75
2022-08-21T11:13:36.800Z,101643.06
2022-08-21T11:16:23.079Z,101635.41
2022-08-21T11:19:34.284Z,101627.25
2022-08-21T11:22:19.381Z,101629.69
2022-08-21T11:24:57.141Z,101626.25
2022-08-21T11:27:37.503Z,101627.09
2022-08-21T11:30:06.143Z,101627.94
2022-08-21T11:32:44.315Z,101621.44
2022-08-21T11:35:20.855Z,101628.44
2022-08-21T11:37:50.419Z,101622.25
2022-08-21T11:40:26.327Z,101620.91
2022-08-21T11:42:55.801Z,101621.72
2022-08-21T11:45:46.000Z,101622.25
2022-08-21T11:48:39.132Z,101629.19
2022-08-21T11:51:12.051Z,101629.03
2022-08-21T11:53:54.100Z,101647.59
2022-08-21T11:56:43.331Z,101639.50
2022-08-21T11:59:17.696Z,101652.50
2022-08-21T12:01:46.618Z,101643.44
2022-08-21T12:04:35.399Z,101650.94
2022-08-21T12:07:17.919Z,101648.34
2022-08-21T12:10:00.897Z,101650.66
2022-08-21T12:12:33.812Z,101655.41
2022-08-21T12:15:23.159Z,101656.53
2022-08-21T12:18:03.239Z,101658.50
2022-08-21T12:20:38.765Z,101655.59
2022-08-21T12:23:17.544Z,101655.09
2022-08-21T12:26:24.955Z,101649.44
2022-08-21T12:28:51.615Z,101641.81
2022-08-21T12:31:20.486Z,101648.25
2022-08-21T12:33:54.940Z,101645.34
2022-08-21T12:36:27.125Z,101656.06
2022-08-21T12:39:07.333Z,101645.84
2022-08-21T12:42:05.866Z,101644.69
2022-08-21T12:44:52.108Z,101650.34
2022-08-21T12:47:32.572Z,101642.41
2022-08-21T12:50:13.949Z,101651.00
2022-08-21T12:53:05.379Z,101649.25
2022-08-21T12:55:46.574Z,101651.84
2022-08-21T12:58:24.271Z,101642.22
2022-08-21T13:01:07.851Z,101645.34
2022-08-21T13:03:38.728Z,101645.91
2022-08-21T13:06:06.544Z,101643.34
2022-08-21T13:08:41.051Z,101649.00
2022-08-21T13:11:32.712Z,101651.31
2022-08-21T13:14:05.263Z,101655.09
2022-08-21T13:16:32.807Z,101652.03
2022-08-21T13:19:37.246Z,101661.06
2022-08-21T13:22:30.601Z,101656.22
2022-08-21T13:24:50.795Z,101654.78
2022-08-21T13:27:27.828Z,101655.94
2022-08-21T13:30:10.972Z,101654.66
2022-08-21T13:32:41.912Z,101657.78
2022-08-21T13:35:29.107Z,101651.09
2022-08-21T13:37:59.661Z,101645.41
2022-08-21T13:40:33.653Z,101651.59
2022-08-21T13:43:01.922Z,101645.28
2022-08-21T13:45:33.000Z,101647.69
2022-08-21T13:48:06.035Z,101648.78
2022-08-21T13:50:36.180Z,101651.53
2022-08-21T13:53:08.423Z,101648.44
2022-08-21T13:55:42.705Z,101651.84
2022-08-21T13:58:46.508Z,101648.78
2022-08-21T14:01:55.605Z,101645.72
2022-08-21T14:04:53.394Z,101641.03
2022-08-21T14:07:30.672Z,101639.59
2022-08-21T14:09:57.081Z,101639.75
2022-08-21T14:12:39.108Z,101632.47
2022-08-21T14:15:13.711Z,101637.34
2022-08-21T14:17:42.523Z,101631.16
2022-08-21T14:20:29.835Z,101636.03
2022-08-21T14:22:56.780Z,101637.66
2022-08-21T14:25:23.119Z,101645.16
2022-08-21T14:28:10.688Z,101641.56
2022-08-21T14:30:41.018Z,101652.47
2022-08-21T14:33:13.967Z,101655.53
2022-08-21T14:35:41.250Z,101650.66
2022-08-21T14:38:22.553Z,101649.03
2022-08-21T14:40:54.214Z,101652.47
2022-08-21T14:43:21.025Z,101656.38
2022-08-21T14:45:48.152Z,101648.72
2022-08-21T14:48:50.108Z,101654.91
2022-08-21T14:51:16.577Z,101651.66
2022-08-21T14:53:43.064Z,101645.66
2022-08-21T14:56:09.927Z,101645.81
2022-08-21T14:58:46.186Z,101648.09
2022-08-21T15:01:23.403Z,101648.31
2022-08-21T15:04:01.388Z,101656.41
2022-08-21T15:06:33.779Z,101651.22
2022-08-21T15:09:03.132Z,101666.16
2022-08-21T15:11:43.319Z,101655.59
2022-08-21T15:14:14.923Z,101669.41
2022-08-21T15:16:41.342Z,101665.50
2022-08-21T15:19:07.788Z,101668.59
2022-08-21T15:21:34.187Z,101671.34
2022-08-21T15:24:00.592Z,101667.44
2022-08-21T15:26:27.039Z,101669.06
2022-08-21T15:29:08.878Z,101671.03
2022-08-21T15:31:51.277Z,101682.38
2022-08-21T15:34:18.347Z,101676.06
2022-08-21T15:36:57.065Z,101682.72
2022-08-21T15:39:37.373Z,101679.13
2022-08-21T15:42:42.427Z,101677.47
2022-08-21T15:45:20.979Z,101678.31
2022-08-21T15:47:51.709Z,101682.22
2022-08-21T15:50:23.975Z,101682.03
2022-08-21T15:52:50.798Z,101681.88
2022-08-21T15:55:17.369Z,101688.06
2022-08-21T15:57:58.079Z,101679.28
2022-08-21T16:00:33.865Z,101683.19
2022-08-21T16:03:07.368Z,101684.31
2022-08-21T16:05:34.836Z,101683.81
2022-08-21T16:08:02.150Z,101687.06
2022-08-21T16:10:40.283Z,101694.38
2022-08-21T16:13:19.551Z,101692.91
2022-08-21T16:15:53.963Z,101694.53
2022-08-21T16:18:27.461Z,101689.03
2022-08-21T16:20:55.120Z,101693.91
2022-08-21T16:23:21.819Z,101699.41
2022-08-21T16:25:54.622Z,101692.28
2022-08-21T16:28:21.804Z,101689.03
2022-08-21T16:30:51.215Z,101696.81
2022-08-21T16:33:25.570Z,101693.88
2022-08-21T16:36:04.116Z,101693.72
2022-08-21T16:38:50.891Z,101691.63
2022-08-21T16:41:19.663Z,101702.16
2022-08-21T16:44:02.612Z,101689.81
2022-08-21T16:46:32.951Z,101695.19
2022-08-21T16:49:05.665Z,101696.47
2022-08-21T16:51:43.421Z,101689.97
2022-08-21T16:54:11.364Z,101692.22
2022-08-21T16:56:40.416Z,101688.50
2022-08-21T16:59:07.977Z,101681.69
2022-08-21T17:01:57.474Z,101687.84
2022-08-21T17:04:25.648Z,101685.38
2022-08-21T17:07:12.912Z,101693.50
2022-08-21T17:09:41.576Z,101686.38
2022-08-21T17:12:08.443Z,101680.03
2022-08-21T17:14:47.441Z,101691.69
2022-08-21T17:17:14.293Z,101687.16
2022-08-21T17:19:41.658Z,101694.94
2022-08-21T17:22:12.889Z,101687.59
2022-08-21T17:25:03.168Z,101689.06
2022-08-21T17:27:43.969Z,101689.22
2022-08-21T17:30:11.968Z,101689.53
2022-08-21T17:32:54.020Z,101690.75
2022-08-21T17:35:23.883Z,101697.75
2022-08-21T17:38:20.260Z,101696.25
2022-08-21T17:40:55.136Z,101691.06
2022-08-21T17:43:40.955Z,101693.97
2022-08-21T17:46:07.805Z,101691.34
2022-08-21T17:48:35.370Z,101688.72
2022-08-21T17:51:08.434Z,101686.13
2022-08-21T17:53:53.703Z,101685.91
2022-08-21T17:56:20.914Z,101689.63
2022-08-21T17:58:51.672Z,101688.63
2022-08-21T18:02:08.144Z,101691.19
2022-08-21T18:04:50.842Z,101693.78
2022-08-21T18:07:30.894Z,101698.59
2022-08-21T18:10:05.719Z,101699.53
2022-08-21T18:12:33.787Z,101698.53
2022-08-21T18:15:01.283Z,101698.03
2022-08-21T18:17:33.728Z,101699.81
2022-08-21T18:20:00.388Z,101696.03
2022-08-21T18:22:26.960Z,101700.25
2022-08-21T18:24:53.923Z,101693.75
2022-08-21T18:31:16.039Z,101690.25
2022-08-21T18:33:57.014Z,101694.75
2022-08-21T18:36:40.481Z,101701.22
2022-08-21T18:39:34.344Z,101698.25
2022-08-21T18:41:54.775Z,101698.06
2022-08-21T18:44:24.479Z,101696.25
2022-08-21T18:47:05.744Z,101691.34
2022-08-21T18:53:27.450Z,101702.63
2022-08-21T18:56:04.789Z,101703.53
2022-08-21T18:58:50.803Z,101708.34
2022-08-21T19:01:43.207Z,101712.84
2022-08-21T19:04:56.004Z,101712.94
2022-08-21T19:08:09.420Z,101716.31
2022-08-21T19:10:40.673Z,101711.22
2022-08-21T19:13:13.505Z,101714.91
2022-08-21T19:15:42.076Z,101716.31
2022-08-21T19:18:28.322Z,101715.63
2022-08-21T19:21:14.053Z,101720.09
2022-08-21T19:23:42.446Z,101721.84
2022-08-21T19:26:12.058Z,101715.31
2022-08-21T19:28:45.953Z,101716.72
2022-08-21T19:34:23.665Z,101719.56
2022-08-21T19:36:50.890Z,101724.25
2022-08-21T19:39:20.096Z,101717.72
2022-08-21T19:41:59.505Z,101719.97
2022-08-21T19:44:28.937Z,101726.91
2022-08-21T19:47:00.808Z,101729.13
2022-08-21T19:49:54.107Z,101733.59
2022-08-21T19:52:21.948Z,101730.13
2022-08-21T19:54:48.813Z,101735.41
2022-08-21T19:57:22.495Z,101732.44
2022-08-21T19:59:49.978Z,101735.81
2022-08-21T20:02:37.122Z,101726.84
2022-08-21T20:05:09.666Z,101728.06
2022-08-21T20:07:36.904Z,101725.63
2022-08-21T20:10:06.357Z,101737.72
2022-08-21T20:12:33.091Z,101734.75
2022-08-21T20:15:20.073Z,101736.78
2022-08-21T20:17:48.401Z,101732.69
2022-08-21T20:20:24.576Z,101746.22
2022-08-21T20:22:56.915Z,101739.69
2022-08-21T20:25:23.308Z,101750.44
2022-08-21T20:27:49.866Z,101753.00
2022-08-21T20:30:18.459Z,101741.78
2022-08-21T20:32:49.791Z,101746.25
2022-08-21T20:35:17.615Z,101741.34
2022-08-21T20:37:44.256Z,101742.78
2022-08-21T20:40:13.479Z,101739.50
2022-08-21T20:42:55.073Z,101743.94
2022-08-21T20:45:41.750Z,101747.50
2022-08-21T20:48:16.896Z,101742.09
2022-08-21T20:51:02.303Z,101744.31
2022-08-21T20:54:19.631Z,101741.34
2022-08-21T20:56:58.148Z,101740.31
2022-08-21T21:00:08.021Z,101738.66
2022-08-21T21:03:01.717Z,101738.97
2022-08-21T21:05:54.890Z,101742.84
2022-08-21T21:08:37.950Z,101744.22
2022-08-21T21:11:16.195Z,101740.69
2022-08-21T21:14:10.151Z,101746.44
2022-08-21T21:16:50.743Z,101740.97
2022-08-21T21:19:25.945Z,101741.28
2022-08-21T21:22:34.237Z,101735.47
2022-08-21T21:25:11.186Z,101742.91
2022-08-21T21:27:49.216Z,101747.56
2022-08-21T21:30:32.280Z,101751.41
2022-08-21T21:32:58.733Z,101749.78
2022-08-21T21:35:39.938Z,101747.56
2022-08-21T21:38:32.926Z,101747.03
2022-08-21T21:41:11.988Z,101746.53
2022-08-21T21:44:14.825Z,101750.91
2022-08-21T21:47:18.424Z,101750.91
2022-08-21T21:49:59.723Z,101752.53
2022-08-21T21:55:39.677Z,101757.44
2022-08-21T21:58:24.629Z,101742.38
2022-08-21T22:01:28.850Z,101753.38
2022-08-21T22:04:54.927Z,101750.63
2022-08-21T22:07:28.892Z,101754.47
2022-08-21T22:10:30.537Z,101755.88
2022-08-21T22:13:26.322Z,101753.13
2022-08-21T22:15:53.520Z,101752.09
2022-08-21T22:18:54.882Z,101748.81
2022-08-21T22:21:38.648Z,101752.16
2022-08-21T22:25:00.379Z,101749.19
2022-08-21T22:27:32.952Z,101751.09
2022-08-21T22:30:09.189Z,101741.78
2022-08-21T22:32:46.401Z,101746.72
2022-08-21T22:35:33.433Z,101745.94
2022-08-21T22:38:01.367Z,101741.25
2022-08-21T22:40:49.753Z,101752.22
2022-08-21T22:43:21.077Z,101753.31
2022-08-21T22:46:06.896Z,101745.69
2022-08-21T22:48:56.792Z,101752.00
2022-08-21T22:51:46.631Z,101745.19
2022-08-21T22:54:36.047Z,101745.69
2022-08-21T23:01:26.628Z,101748.16
2022-08-21T23:04:12.073Z,101747.63
2022-08-21T23:06:58.289Z,101750.69
2022-08-21T23:09:33.657Z,101748.22
2022-08-21T23:12:33.065Z,101753.19
2022-08-21T23:15:07.825Z,101741.41
2022-08-21T23:18:12.329Z,101745.25
2022-08-21T23:20:57.567Z,101741.41
2022-08-21T23:23:30.132Z,101740.88
2022-08-21T23:26:07.432Z,101743.63
2022-08-21T23:29:24.858Z,101744.22
2022-08-21T23:32:25.194Z,101742.59
2022-08-21T23:35:08.067Z,101734.63
2022-08-21T23:41:34.421Z,101741.16
2022-08-21T23:44:45.596Z,101738.44
2022-08-21T23:47:34.843Z,101738.72
2022-08-21T23:50:14.489Z,101732.72
2022-08-21T23:53:25.087Z,101739.31
2022-08-21T23:56:35.195Z,101737.09
2022-08-21T23:59:28.415Z,101727.25
